Camanche, IA

2:19 PM CDT on September 28, 2016 (GMT -0500)
Clinton Municipal

Weather History for KCWI - November, 2012

Change the Weather History Date:

Sunday, November 11, 2012

  Actual Average Record
Temperature  
Mean Temperature 47 °F -  
Max Temperature 62 °F 46 °F 75 °F (1964)
Min Temperature 30 °F 30 °F 12 °F (1950)
Degree Days  
Heating Degree Days 18    
Moisture  
Dew Point 42 °F    
Average Humidity 73    
Maximum Humidity 88    
Minimum Humidity 55    
Precipitation  
Precipitation 0.64 in - - ()
Sea Level Pressure  
Sea Level Pressure 29.85 in    
Wind  
Wind Speed 19 mph (SW)    
Max Wind Speed 26 mph    
Max Gust Speed 38 mph    
Visibility 10 miles    
Events      
Averages and records for this station are not official NWS values.
T = Trace of Precipitation, MM = Missing Value Source: NWS Daily Summary

Daily Weather History Graph

Daily Weather History Graph

Search for Another Location

Airport or City:

Trip Planner

Search our weather history database for the weather conditions in past years. The results will help you decide how hot, cold, wet, or windy it might be!

Date:

Astronomy

Nov. 11, 2012 Rise Set
Actual Time 6:46 AM CST 4:43 PM CST
Civil Twilight 6:16 AM CST 5:13 PM CST
Nautical Twilight 5:43 AM CST 5:46 PM CST
Astronomical Twilight 5:10 AM CST 6:19 PM CST
Moon 3:58 AM CST (11/11) 3:08 PM CST (11/11)
Length of Visible Light 10h 56m
Length of Day
9h 57m
Waning Crescent, 7% of the Moon is Illuminated
Nov 11
Waning Crescent
Nov 13
New
Nov 20
First Quarter
Nov 28
Full
Dec 6
Last Quarter

Hourly Weather History & Observations

Time (CST) Temp. Windchill Dew Point Humidity Pressure Visibility Wind Dir Wind Speed Gust Speed Precip Events Conditions
12:15 AM 62.6 °F - 46.4 °F 55% 29.83 in 10.0 mi South 23.0 mph 29.9 mph N/A   Clear
12:35 AM 62.6 °F - 46.4 °F 55% 29.83 in 10.0 mi South 23.0 mph 38.0 mph N/A   Clear
12:55 AM 62.6 °F - 46.4 °F 55% 29.83 in 10.0 mi South 21.9 mph 25.3 mph N/A   Clear
1:15 AM 62.6 °F - 46.4 °F 55% 29.84 in 10.0 mi South 18.4 mph - N/A   Clear
1:35 AM 62.6 °F - 48.2 °F 59% 29.84 in 10.0 mi SSW 20.7 mph 27.6 mph N/A   Clear
1:55 AM 62.6 °F - 48.2 °F 59% 29.86 in 10.0 mi South 20.7 mph 25.3 mph N/A   Clear
2:15 AM 62.6 °F - 48.2 °F 59% 29.86 in 10.0 mi South 13.8 mph 21.9 mph N/A   Scattered Clouds
2:35 AM 60.8 °F - 48.2 °F 63% 29.86 in 10.0 mi South 18.4 mph 24.2 mph N/A   Scattered Clouds
2:55 AM 60.8 °F - 48.2 °F 63% 29.85 in 10.0 mi South 19.6 mph 23.0 mph N/A   Scattered Clouds
3:15 AM 60.8 °F - 48.2 °F 63% 29.85 in 10.0 mi South 17.3 mph 23.0 mph N/A   Partly Cloudy
3:35 AM 60.8 °F - 48.2 °F 63% 29.84 in 10.0 mi South 16.1 mph - N/A   Mostly Cloudy
3:55 AM 60.8 °F - 48.2 °F 63% 29.84 in 10.0 mi South 15.0 mph 24.2 mph N/A   Partly Cloudy
4:15 AM 60.8 °F - 48.2 °F 63% 29.84 in 10.0 mi South 11.5 mph 17.3 mph N/A   Mostly Cloudy
4:35 AM 60.8 °F - 48.2 °F 63% 29.83 in 10.0 mi South 15.0 mph - N/A   Mostly Cloudy
4:55 AM 60.8 °F - 48.2 °F 63% 29.83 in 10.0 mi South 11.5 mph - N/A   Overcast
5:35 AM 60.8 °F - 48.2 °F 63% 29.81 in 10.0 mi SSE 15.0 mph 21.9 mph N/A   Overcast
5:55 AM 59.0 °F - 48.2 °F 67% 29.81 in 10.0 mi SSE 16.1 mph 21.9 mph N/A   Overcast
6:15 AM 59.0 °F - 48.2 °F 67% 29.80 in 10.0 mi SSE 17.3 mph 24.2 mph N/A   Overcast
6:35 AM 59.0 °F - 48.2 °F 67% 29.80 in 10.0 mi South 20.7 mph 26.5 mph N/A   Overcast
6:55 AM 59.0 °F - 48.2 °F 67% 29.80 in 10.0 mi SSE 16.1 mph - N/A   Overcast
7:35 AM 59.0 °F - 48.2 °F 67% 29.79 in 10.0 mi SSE 18.4 mph 25.3 mph N/A   Overcast
8:15 AM 60.8 °F - 48.2 °F 63% 29.77 in 10.0 mi SSE 19.6 mph 26.5 mph N/A   Mostly Cloudy
8:35 AM 60.8 °F - 48.2 °F 63% 29.77 in 10.0 mi South 23.0 mph 29.9 mph N/A   Overcast
8:55 AM 60.8 °F - 50.0 °F 68% 29.76 in 10.0 mi South 23.0 mph 29.9 mph N/A   Overcast
9:35 AM 62.6 °F - 51.8 °F 68% 29.75 in 10.0 mi South 26.5 mph 36.8 mph N/A   Partly Cloudy
9:55 AM 62.6 °F - 51.8 °F 68% 29.75 in 10.0 mi South 25.3 mph 35.7 mph N/A   Mostly Cloudy
10:15 AM 62.6 °F - 51.8 °F 68% 29.75 in 10.0 mi South 25.3 mph 35.7 mph N/A   Mostly Cloudy
10:35 AM 62.6 °F - 51.8 °F 68% 29.74 in 10.0 mi South 24.2 mph 32.2 mph N/A   Mostly Cloudy
11:15 AM 62.6 °F - 51.8 °F 68% 29.72 in 10.0 mi South 21.9 mph 27.6 mph N/A   Overcast
11:35 AM 62.6 °F - 51.8 °F 68% 29.72 in 10.0 mi South 21.9 mph 28.8 mph N/A   Overcast
12:15 PM 62.6 °F - 53.6 °F 72% 29.69 in 10.0 mi South 16.1 mph - N/A   Overcast
12:35 PM 60.8 °F - 53.6 °F 77% 29.67 in 10.0 mi South 16.1 mph 25.3 mph N/A   Overcast
12:55 PM 62.6 °F - 53.6 °F 72% 29.67 in 10.0 mi South 23.0 mph 26.5 mph N/A   Overcast
1:15 PM 62.6 °F - 53.6 °F 72% 29.66 in 10.0 mi SSW 17.3 mph 25.3 mph N/A   Overcast
1:35 PM 55.4 °F - 51.8 °F 88% 29.71 in 7.0 mi WNW 16.1 mph 31.1 mph 0.08 in   Mostly Cloudy
2:15 PM 53.6 °F - 48.2 °F 82% 29.73 in 3.0 mi WNW 16.1 mph 23.0 mph 0.01 in   Overcast
2:35 PM 53.6 °F - 48.2 °F 82% 29.75 in 10.0 mi West 10.4 mph 17.3 mph 0.01 in   Mostly Cloudy
2:55 PM 51.8 °F - 48.2 °F 88% 29.77 in 5.0 mi West 12.7 mph - 0.04 in   Overcast
3:15 PM 51.8 °F - 46.4 °F 82% 29.77 in 10.0 mi West 8.1 mph - 0.02 in   Mostly Cloudy
3:35 PM 51.8 °F - 46.4 °F 82% 29.78 in 10.0 mi West 10.4 mph - 0.02 in   Overcast
3:55 PM 51.8 °F - 46.4 °F 82% 29.78 in 8.0 mi West 11.5 mph - 0.04 in   Overcast
4:15 PM 48.2 °F - 44.6 °F 87% 29.81 in 9.0 mi West 23.0 mph 27.6 mph 0.07 in   Overcast
4:35 PM 44.6 °F 36.1 °F 39.2 °F 81% 29.82 in 10.0 mi WNW 21.9 mph 26.5 mph 0.13 in   Overcast
4:55 PM 41.0 °F 31.9 °F 37.4 °F 87% 29.85 in 8.0 mi West 19.6 mph 26.5 mph 0.16 in   Overcast
5:15 PM 39.2 °F 30.5 °F 35.6 °F 87% 29.86 in 10.0 mi WNW 16.1 mph - 0.10 in   Overcast
5:35 PM 39.2 °F 32.0 °F 35.6 °F 87% 29.86 in 10.0 mi WNW 11.5 mph - 0.19 in   Overcast
5:55 PM 37.4 °F 27.8 °F 33.8 °F 87% 29.89 in 10.0 mi West 17.3 mph - 0.26 in   Overcast
6:15 PM 37.4 °F 26.6 °F 33.8 °F 87% 29.90 in 9.0 mi West 21.9 mph - 0.04 in   Overcast
6:35 PM 35.6 °F 26.6 °F 32.0 °F 87% 29.91 in 10.0 mi West 13.8 mph - 0.06 in   Overcast
6:55 PM 35.6 °F 26.2 °F 32.0 °F 87% 29.90 in 10.0 mi West 15.0 mph - 0.06 in   Overcast
7:15 PM 35.6 °F 24.8 °F 32.0 °F 87% 29.93 in 10.0 mi West 19.6 mph - N/A   Overcast
7:35 PM 35.6 °F 24.8 °F 30.2 °F 81% 29.96 in 10.0 mi WNW 19.6 mph 26.5 mph N/A   Overcast
7:55 PM 35.6 °F 25.5 °F 30.2 °F 81% 29.94 in 10.0 mi WNW 17.3 mph 21.9 mph N/A   Overcast
8:15 PM 33.8 °F 23.2 °F 30.2 °F 87% 29.97 in 10.0 mi WNW 17.3 mph - N/A   Overcast
8:35 PM 33.8 °F 23.5 °F 28.4 °F 81% 29.99 in 10.0 mi WNW 16.1 mph 20.7 mph N/A   Overcast
8:55 PM 33.8 °F 22.2 °F 28.4 °F 81% 29.99 in 10.0 mi WNW 20.7 mph - N/A   Overcast
9:15 PM 33.8 °F 22.5 °F 28.4 °F 81% 29.98 in 10.0 mi WNW 19.6 mph 26.5 mph N/A   Overcast
9:35 PM 33.8 °F 22.2 °F 26.6 °F 75% 30.02 in 10.0 mi West 20.7 mph 26.5 mph N/A   Overcast
9:55 PM 33.8 °F 23.2 °F 26.6 °F 75% 30.02 in 10.0 mi WNW 17.3 mph - N/A   Overcast
10:15 PM 33.8 °F 22.5 °F 26.6 °F 75% 30.02 in 10.0 mi West 19.6 mph 24.2 mph N/A   Overcast
10:35 PM 32.0 °F 20.1 °F 24.8 °F 75% 30.03 in 10.0 mi WNW 19.6 mph - N/A   Overcast
10:55 PM 32.0 °F 20.8 °F 24.8 °F 75% 30.04 in 10.0 mi WNW 17.3 mph 24.2 mph N/A   Overcast
11:15 PM 32.0 °F 22.1 °F 24.8 °F 75% 30.04 in 10.0 mi WNW 13.8 mph 17.3 mph N/A   Overcast
11:35 PM 32.0 °F 20.1 °F 24.8 °F 75% 30.04 in 10.0 mi West 19.6 mph 23.0 mph N/A   Overcast
11:55 PM 30.2 °F 17.4 °F 24.8 °F 80% 30.04 in 10.0 mi WNW 20.7 mph 25.3 mph N/A   Overcast